createdAt,value
2022-11-20T00:00:52.710Z,51.03
2022-11-20T00:03:19.675Z,50.89
2022-11-20T00:05:46.703Z,50.87
2022-11-20T00:08:13.841Z,51.38
2022-11-20T00:10:41.476Z,52.05
2022-11-20T00:13:09.306Z,50.85
2022-11-20T00:15:36.039Z,51.37
2022-11-20T00:18:02.923Z,51.43
2022-11-20T00:20:29.655Z,50.82
2022-11-20T00:22:56.340Z,53.06
2022-11-20T00:25:23.026Z,52.62
2022-11-20T00:27:49.983Z,51.10
2022-11-20T00:30:16.768Z,51.51
2022-11-20T00:32:43.553Z,51.62
2022-11-20T00:35:10.382Z,50.46
2022-11-20T00:37:37.236Z,50.30
2022-11-20T00:40:04.305Z,51.12
2022-11-20T00:42:33.780Z,51.85
2022-11-20T00:45:00.471Z,51.14
2022-11-20T00:47:27.225Z,50.11
2022-11-20T00:49:53.918Z,49.59
2022-11-20T00:52:20.682Z,48.68
2022-11-20T00:54:47.343Z,48.54
2022-11-20T00:57:14.348Z,50.48
2022-11-20T00:59:41.343Z,49.47
2022-11-20T01:02:08.203Z,48.53
2022-11-20T01:04:35.070Z,48.32
2022-11-20T01:07:01.949Z,47.40
2022-11-20T01:09:28.636Z,46.65
2022-11-20T01:11:55.767Z,45.59
2022-11-20T01:14:22.430Z,45.60
2022-11-20T01:16:51.581Z,46.07
2022-11-20T01:19:22.172Z,45.07
2022-11-20T01:21:54.478Z,44.64
2022-11-20T01:24:22.834Z,43.81
2022-11-20T01:26:51.801Z,44.08
2022-11-20T01:29:24.247Z,44.29
2022-11-20T01:31:52.513Z,44.35
2022-11-20T01:34:21.026Z,44.71
2022-11-20T01:36:48.563Z,44.80
2022-11-20T01:39:19.098Z,45.85
2022-11-20T01:42:09.855Z,45.61
2022-11-20T01:44:57.698Z,45.01
2022-11-20T01:47:33.807Z,46.52
2022-11-20T01:50:06.311Z,46.50
2022-11-20T01:52:42.069Z,45.83
2022-11-20T01:55:15.740Z,46.06
2022-11-20T01:57:44.698Z,44.62
2022-11-20T02:00:14.414Z,44.47
2022-11-20T02:02:46.183Z,44.26
2022-11-20T02:05:28.397Z,42.90
2022-11-20T02:07:58.300Z,43.14
2022-11-20T02:10:25.479Z,43.33
2022-11-20T02:13:11.344Z,42.83
2022-11-20T02:15:38.349Z,43.07
2022-11-20T02:18:06.630Z,42.55
2022-11-20T02:20:33.738Z,43.18
2022-11-20T02:23:14.418Z,42.35
2022-11-20T02:25:43.884Z,42.97
2022-11-20T02:28:11.320Z,42.75
2022-11-20T02:30:38.156Z,42.00
2022-11-20T02:33:05.015Z,42.35
2022-11-20T02:35:32.216Z,42.77
2022-11-20T02:38:02.062Z,42.42
2022-11-20T02:40:29.454Z,41.67
2022-11-20T02:42:57.616Z,40.10
2022-11-20T02:45:25.099Z,40.22
2022-11-20T02:47:52.839Z,39.63
2022-11-20T02:50:19.968Z,39.68
2022-11-20T02:52:47.325Z,38.77
2022-11-20T02:55:14.065Z,38.60
2022-11-20T02:57:41.039Z,37.88
2022-11-20T03:00:10.071Z,37.58
2022-11-20T03:02:37.055Z,38.76
2022-11-20T03:05:04.128Z,39.10
2022-11-20T03:07:31.047Z,38.92
2022-11-20T03:09:57.788Z,37.23
2022-11-20T03:12:24.617Z,37.81
2022-11-20T03:14:53.237Z,38.42
2022-11-20T03:17:20.386Z,37.85
2022-11-20T03:19:47.108Z,38.60
2022-11-20T03:22:14.052Z,37.44
2022-11-20T03:24:40.738Z,37.65
2022-11-20T03:27:07.982Z,37.61
2022-11-20T03:29:36.585Z,38.19
2022-11-20T03:32:03.536Z,37.32
2022-11-20T03:34:30.323Z,36.93
2022-11-20T03:36:57.014Z,37.43
2022-11-20T03:39:24.079Z,37.82
2022-11-20T03:41:51.429Z,37.02
2022-11-20T03:44:18.178Z,36.90
2022-11-20T03:46:44.877Z,37.15
2022-11-20T03:49:11.688Z,37.45
2022-11-20T03:51:38.485Z,38.25
2022-11-20T03:54:07.991Z,37.64
2022-11-20T03:56:38.068Z,37.81
2022-11-20T03:59:05.897Z,38.22
2022-11-20T04:01:36.405Z,37.93
2022-11-20T04:04:03.977Z,38.00
2022-11-20T04:06:35.624Z,37.66
2022-11-20T04:09:02.835Z,37.54
2022-11-20T04:11:31.818Z,37.42
2022-11-20T04:14:01.160Z,37.39
2022-11-20T04:16:31.324Z,36.74
2022-11-20T04:19:03.608Z,37.75
2022-11-20T04:21:30.547Z,37.97
2022-11-20T04:23:58.387Z,37.62
2022-11-20T04:26:27.440Z,37.28
2022-11-20T04:28:54.246Z,37.73
2022-11-20T04:31:23.901Z,38.44
2022-11-20T04:33:51.531Z,38.52
2022-11-20T04:36:28.328Z,37.58
2022-11-20T04:39:00.635Z,37.99
2022-11-20T04:41:33.760Z,37.51
2022-11-20T04:44:05.437Z,37.80
2022-11-20T04:46:38.511Z,37.52
2022-11-20T04:49:06.225Z,37.60
2022-11-20T04:51:33.837Z,36.39
2022-11-20T04:54:00.741Z,36.86
2022-11-20T04:56:27.560Z,37.61
2022-11-20T04:58:54.554Z,37.66
2022-11-20T05:01:25.390Z,37.37
2022-11-20T05:03:53.521Z,37.16
2022-11-20T05:06:22.548Z,38.96
2022-11-20T05:08:50.194Z,38.36
2022-11-20T05:11:20.010Z,38.11
2022-11-20T05:13:48.602Z,38.47
2022-11-20T05:16:18.486Z,37.97
2022-11-20T05:18:46.225Z,38.22
2022-11-20T05:21:13.838Z,38.74
2022-11-20T05:23:41.919Z,39.09
2022-11-20T05:26:13.637Z,40.06
2022-11-20T05:28:40.589Z,40.69
2022-11-20T05:31:16.142Z,42.23
2022-11-20T05:33:44.704Z,43.27
2022-11-20T05:36:13.162Z,43.41
2022-11-20T05:38:40.410Z,43.21
2022-11-20T05:41:17.985Z,43.43
2022-11-20T05:43:46.892Z,43.76
2022-11-20T05:46:32.074Z,43.29
2022-11-20T05:48:59.475Z,43.49
2022-11-20T05:51:27.263Z,43.81
2022-11-20T05:53:54.299Z,43.65
2022-11-20T05:56:22.713Z,43.64
2022-11-20T05:58:50.509Z,44.46
2022-11-20T06:01:26.679Z,44.19
2022-11-20T06:03:55.317Z,43.71
2022-11-20T06:06:22.852Z,43.59
2022-11-20T06:08:49.855Z,43.62
2022-11-20T06:11:17.509Z,44.23
2022-11-20T06:13:44.383Z,44.50
2022-11-20T06:16:14.334Z,44.45
2022-11-20T06:18:41.278Z,42.71
2022-11-20T06:21:11.833Z,42.20
2022-11-20T06:23:39.013Z,42.23
2022-11-20T06:26:08.715Z,42.44
2022-11-20T06:28:36.098Z,41.95
2022-11-20T06:31:04.092Z,41.75
2022-11-20T06:33:30.854Z,41.80
2022-11-20T06:36:05.696Z,41.39
2022-11-20T06:38:35.900Z,42.01
2022-11-20T06:41:03.927Z,42.50
2022-11-20T06:43:30.981Z,42.35
2022-11-20T06:45:59.258Z,41.49
2022-11-20T06:48:29.715Z,41.46
2022-11-20T06:50:57.964Z,41.28
2022-11-20T06:53:25.729Z,41.19
2022-11-20T06:55:53.078Z,41.24
2022-11-20T06:58:20.258Z,41.18
2022-11-20T07:00:47.334Z,40.60
2022-11-20T07:03:15.418Z,40.86
2022-11-20T07:05:42.376Z,40.54
2022-11-20T07:08:10.623Z,40.74
2022-11-20T07:10:37.510Z,40.65
2022-11-20T07:13:04.626Z,40.36
2022-11-20T07:15:31.834Z,40.00
2022-11-20T07:18:01.932Z,40.00
2022-11-20T07:20:29.253Z,40.25
2022-11-20T07:22:57.234Z,39.93
2022-11-20T07:25:27.915Z,40.35
2022-11-20T07:27:59.577Z,40.32
2022-11-20T07:30:27.384Z,40.01
2022-11-20T07:32:56.344Z,40.26
2022-11-20T07:35:24.253Z,39.48
2022-11-20T07:37:50.987Z,39.46
2022-11-20T07:40:18.626Z,39.65
2022-11-20T07:42:53.637Z,40.08
2022-11-20T07:45:21.889Z,39.90
2022-11-20T07:47:49.004Z,40.66
2022-11-20T07:50:16.584Z,40.28
2022-11-20T07:52:44.671Z,40.09
2022-11-20T07:55:12.102Z,39.96
2022-11-20T07:57:38.999Z,39.93
2022-11-20T08:00:08.137Z,40.03
2022-11-20T08:02:42.786Z,40.50
2022-11-20T08:05:10.941Z,40.04
2022-11-20T08:07:42.949Z,40.26
2022-11-20T08:10:11.746Z,40.07
2022-11-20T08:13:12.935Z,40.07
2022-11-20T08:15:41.415Z,40.63
2022-11-20T08:21:04.774Z,40.33
2022-11-20T08:23:31.969Z,40.82
2022-11-20T08:25:58.643Z,40.50
2022-11-20T08:28:25.453Z,40.04
2022-11-20T08:30:52.188Z,39.85
2022-11-20T08:33:19.515Z,39.75
2022-11-20T08:35:46.597Z,39.65
2022-11-20T08:38:13.424Z,39.96
2022-11-20T08:40:40.245Z,39.16
2022-11-20T08:43:06.971Z,39.26
2022-11-20T08:45:35.218Z,39.04
2022-11-20T08:48:03.552Z,39.58
2022-11-20T08:50:33.360Z,39.79
2022-11-20T08:53:06.834Z,40.27
2022-11-20T08:55:33.977Z,40.09
2022-11-20T08:58:05.518Z,41.35
2022-11-20T09:00:34.481Z,41.06
2022-11-20T09:03:02.170Z,40.32
2022-11-20T09:05:29.934Z,40.87
2022-11-20T09:08:00.300Z,40.83
2022-11-20T09:10:29.970Z,41.31
2022-11-20T09:12:57.233Z,41.57
2022-11-20T09:15:25.075Z,41.19
2022-11-20T09:17:53.256Z,42.37
2022-11-20T09:20:20.520Z,42.82
2022-11-20T09:22:47.705Z,43.09
2022-11-20T09:25:14.414Z,42.24
2022-11-20T09:27:44.612Z,44.33
2022-11-20T09:30:12.215Z,45.16
2022-11-20T09:32:42.957Z,44.94
2022-11-20T09:35:10.323Z,45.58
2022-11-20T09:37:36.990Z,44.68
2022-11-20T09:40:04.426Z,44.09
2022-11-20T09:42:52.786Z,44.00
2022-11-20T09:45:58.352Z,45.41
2022-11-20T09:49:19.016Z,44.89
2022-11-20T09:52:01.976Z,46.49
2022-11-20T09:54:33.702Z,45.85
2022-11-20T09:57:17.816Z,45.88
2022-11-20T10:00:05.817Z,47.25
2022-11-20T10:03:04.809Z,49.05
2022-11-20T10:05:40.318Z,48.57
2022-11-20T10:08:17.119Z,48.71
2022-11-20T10:11:07.093Z,47.95
2022-11-20T10:14:08.097Z,48.87
2022-11-20T10:16:40.588Z,48.43
2022-11-20T10:19:29.621Z,47.89
2022-11-20T10:22:35.498Z,48.32
2022-11-20T10:25:15.107Z,49.97
2022-11-20T10:28:12.802Z,50.77
2022-11-20T10:30:44.363Z,51.51
2022-11-20T10:33:18.756Z,49.71
2022-11-20T10:36:17.422Z,49.74
2022-11-20T10:38:50.680Z,49.90
2022-11-20T10:41:27.209Z,49.21
2022-11-20T10:43:58.138Z,49.25
2022-11-20T10:46:26.649Z,48.45
2022-11-20T10:48:53.389Z,48.36
2022-11-20T10:51:23.758Z,48.80
2022-11-20T10:54:29.306Z,49.97
2022-11-20T10:57:06.395Z,49.62
2022-11-20T10:59:45.300Z,50.06
2022-11-20T11:02:23.217Z,51.35
2022-11-20T11:04:54.366Z,51.32
2022-11-20T11:07:50.274Z,51.75
2022-11-20T11:10:27.091Z,51.94
2022-11-20T11:12:54.046Z,52.37
2022-11-20T11:15:38.393Z,52.87
2022-11-20T11:18:05.780Z,56.94
2022-11-20T11:20:33.423Z,59.67
2022-11-20T11:23:01.141Z,53.22
2022-11-20T11:25:34.590Z,51.81
2022-11-20T11:28:19.869Z,49.54
2022-11-20T11:30:49.519Z,50.46
2022-11-20T11:33:30.310Z,50.68
2022-11-20T11:36:00.530Z,51.32
2022-11-20T11:38:36.387Z,50.96
2022-11-20T11:41:05.391Z,50.53
2022-11-20T11:43:56.117Z,51.49
2022-11-20T11:46:30.357Z,51.27
2022-11-20T11:49:01.648Z,51.08
2022-11-20T11:51:37.880Z,52.47
2022-11-20T11:54:15.464Z,52.05
2022-11-20T11:56:42.548Z,53.86
2022-11-20T11:59:18.195Z,53.12
2022-11-20T12:01:52.675Z,52.33
2022-11-20T12:04:47.461Z,51.26
2022-11-20T12:07:45.972Z,52.01
2022-11-20T12:10:22.209Z,52.09
2022-11-20T12:13:16.732Z,49.92
2022-11-20T12:15:47.340Z,50.85
2022-11-20T12:18:23.246Z,51.24
2022-11-20T12:21:11.579Z,51.28
2022-11-20T12:23:53.332Z,51.93
2022-11-20T12:26:44.224Z,51.87
2022-11-20T12:29:14.190Z,52.61
2022-11-20T12:32:02.390Z,53.70
2022-11-20T12:34:36.779Z,52.83
2022-11-20T12:37:12.453Z,53.26
2022-11-20T12:39:51.575Z,52.37
2022-11-20T12:43:08.812Z,53.06
2022-11-20T12:45:55.458Z,52.41
2022-11-20T12:48:29.590Z,51.03
2022-11-20T12:51:21.059Z,50.51
2022-11-20T12:54:02.136Z,49.89
2022-11-20T12:56:47.842Z,50.25
2022-11-20T12:59:22.692Z,51.27
2022-11-20T13:01:56.544Z,52.26
2022-11-20T13:04:44.716Z,52.49
2022-11-20T13:07:15.398Z,52.88
2022-11-20T13:09:46.980Z,55.13
2022-11-20T13:12:18.200Z,55.51
2022-11-20T13:14:51.326Z,55.94
2022-11-20T13:17:36.480Z,54.22
2022-11-20T13:20:06.790Z,53.19
2022-11-20T13:22:55.619Z,53.88
2022-11-20T13:25:27.170Z,53.16
2022-11-20T13:27:55.271Z,52.83
2022-11-20T13:30:24.441Z,53.94
2022-11-20T13:33:06.720Z,54.97
2022-11-20T13:35:36.232Z,54.94
2022-11-20T13:38:15.226Z,54.96
2022-11-20T13:40:52.763Z,53.91
2022-11-20T13:43:27.802Z,54.88
2022-11-20T13:46:01.441Z,53.38
2022-11-20T13:48:33.068Z,53.09
2022-11-20T13:51:02.896Z,53.35
2022-11-20T13:53:52.691Z,53.12
2022-11-20T13:56:32.219Z,51.98
2022-11-20T13:59:15.108Z,52.53
2022-11-20T14:01:46.410Z,52.39
2022-11-20T14:04:30.213Z,52.32
2022-11-20T14:06:57.842Z,52.57
2022-11-20T14:09:30.873Z,53.04
2022-11-20T14:11:58.373Z,54.05
2022-11-20T14:14:27.134Z,53.11
2022-11-20T14:17:08.947Z,53.71
2022-11-20T14:19:38.130Z,53.77
2022-11-20T14:22:09.431Z,52.90
2022-11-20T14:24:36.363Z,53.83
2022-11-20T14:27:03.337Z,52.87
2022-11-20T14:29:36.159Z,52.69
2022-11-20T14:32:04.626Z,52.85
2022-11-20T14:34:36.641Z,53.02
2022-11-20T14:37:10.413Z,53.58
2022-11-20T14:39:53.475Z,53.45
2022-11-20T14:42:26.278Z,53.89
2022-11-20T14:44:57.099Z,53.25
2022-11-20T14:47:30.209Z,53.88
2022-11-20T14:49:58.727Z,54.23
2022-11-20T14:52:27.585Z,53.57
2022-11-20T14:54:57.498Z,56.23
2022-11-20T14:57:30.028Z,55.01
2022-11-20T15:00:09.483Z,54.72
2022-11-20T15:02:40.457Z,54.76
2022-11-20T15:05:07.601Z,55.95
2022-11-20T15:07:41.227Z,55.63
2022-11-20T15:10:22.423Z,55.08
2022-11-20T15:13:01.044Z,55.74
2022-11-20T15:15:49.027Z,56.41
2022-11-20T15:18:19.184Z,55.35
2022-11-20T15:20:46.835Z,56.14
2022-11-20T15:23:16.459Z,55.22
2022-11-20T15:25:43.580Z,55.11
2022-11-20T15:28:21.909Z,55.65
2022-11-20T15:30:50.611Z,56.46
2022-11-20T15:33:19.241Z,56.01
2022-11-20T15:35:46.351Z,55.50
2022-11-20T15:38:13.310Z,54.83
2022-11-20T15:40:40.469Z,55.84
2022-11-20T15:43:13.233Z,55.29
2022-11-20T15:45:49.281Z,55.76
2022-11-20T15:48:20.227Z,54.70
2022-11-20T15:51:04.941Z,54.87
2022-11-20T15:53:31.922Z,56.87
2022-11-20T15:55:58.666Z,57.05
2022-11-20T15:58:25.781Z,57.37
2022-11-20T16:00:52.461Z,57.93
2022-11-20T16:03:20.829Z,56.74
2022-11-20T16:05:47.844Z,56.07
2022-11-20T16:08:15.231Z,57.22
2022-11-20T16:10:43.310Z,55.93
2022-11-20T16:13:34.365Z,55.48
2022-11-20T16:16:06.408Z,57.15
2022-11-20T16:18:34.014Z,56.18
2022-11-20T16:21:01.200Z,55.93
2022-11-20T16:23:27.981Z,57.05
2022-11-20T16:25:54.958Z,57.57
2022-11-20T16:28:21.903Z,58.13
2022-11-20T16:30:48.607Z,58.42
2022-11-20T16:33:18.244Z,56.75
2022-11-20T16:35:45.213Z,56.14
2022-11-20T16:38:11.921Z,57.45
2022-11-20T16:40:38.779Z,56.49
2022-11-20T16:43:11.074Z,56.14
2022-11-20T16:45:45.743Z,56.02
2022-11-20T16:48:14.526Z,55.84
2022-11-20T16:50:47.791Z,55.36
2022-11-20T16:53:14.649Z,55.75
2022-11-20T16:55:41.597Z,54.87
2022-11-20T16:58:09.740Z,54.86
2022-11-20T17:00:38.542Z,55.93
2022-11-20T17:03:06.724Z,58.29
2022-11-20T17:05:34.719Z,56.93
2022-11-20T17:08:01.813Z,57.40
2022-11-20T17:10:28.765Z,56.46
2022-11-20T17:12:55.496Z,56.24
2022-11-20T17:15:22.425Z,57.28
2022-11-20T17:17:49.065Z,56.54
2022-11-20T17:20:15.881Z,55.83
2022-11-20T17:22:42.711Z,56.06
2022-11-20T17:25:09.514Z,58.79
2022-11-20T17:27:36.553Z,60.15
2022-11-20T17:30:03.610Z,58.03
2022-11-20T17:32:30.515Z,57.06
2022-11-20T17:34:58.901Z,56.96
2022-11-20T17:37:25.752Z,57.53
2022-11-20T17:39:52.602Z,57.62
2022-11-20T17:42:29.760Z,58.21
2022-11-20T17:44:58.890Z,56.84
2022-11-20T17:47:26.064Z,56.89
2022-11-20T17:49:53.686Z,56.89
2022-11-20T17:52:20.532Z,56.46
2022-11-20T17:54:47.434Z,56.00
2022-11-20T17:57:33.083Z,55.84
2022-11-20T17:59:59.971Z,55.76
2022-11-20T18:02:26.627Z,56.74
2022-11-20T18:04:53.453Z,56.04
2022-11-20T18:07:20.306Z,55.53
2022-11-20T18:09:47.172Z,55.04
2022-11-20T18:12:13.909Z,55.17
2022-11-20T18:14:41.838Z,56.60
2022-11-20T18:17:11.278Z,56.60
2022-11-20T18:19:47.981Z,57.78
2022-11-20T18:22:23.493Z,57.24
2022-11-20T18:24:50.223Z,56.23
2022-11-20T18:27:20.236Z,55.73
2022-11-20T18:29:51.728Z,56.20
2022-11-20T18:32:20.477Z,56.23
2022-11-20T18:34:47.472Z,54.91
2022-11-20T18:37:15.581Z,54.96
2022-11-20T18:39:42.999Z,55.16
2022-11-20T18:42:31.982Z,55.09
2022-11-20T18:45:00.289Z,54.54
2022-11-20T18:47:30.563Z,55.18
2022-11-20T18:50:02.638Z,55.08
2022-11-20T18:52:35.563Z,55.13
2022-11-20T18:55:04.225Z,55.72
2022-11-20T18:57:31.835Z,54.69
2022-11-20T19:00:03.626Z,54.18
2022-11-20T19:02:40.884Z,54.66
2022-11-20T19:05:13.102Z,55.70
2022-11-20T19:07:40.211Z,57.65
2022-11-20T19:10:07.614Z,56.42
2022-11-20T19:12:34.426Z,55.65
2022-11-20T19:15:01.413Z,54.12
2022-11-20T19:17:28.205Z,54.27
2022-11-20T19:19:55.221Z,54.30
2022-11-20T19:22:22.466Z,56.21
2022-11-20T19:24:49.804Z,55.21
2022-11-20T19:27:16.565Z,55.80
2022-11-20T19:29:43.373Z,56.32
2022-11-20T19:32:10.370Z,55.47
2022-11-20T19:34:37.324Z,54.94
2022-11-20T19:37:05.145Z,55.54
2022-11-20T19:39:32.025Z,55.73
2022-11-20T19:41:58.912Z,57.14
2022-11-20T19:44:25.762Z,57.12
2022-11-20T19:46:52.626Z,55.55
2022-11-20T19:49:19.462Z,56.18
2022-11-20T19:51:48.680Z,55.60
2022-11-20T19:54:16.911Z,56.12
2022-11-20T19:56:45.266Z,57.03
2022-11-20T19:59:12.454Z,57.43
2022-11-20T20:01:39.636Z,57.45
2022-11-20T20:04:07.116Z,56.91
2022-11-20T20:06:36.660Z,56.56
2022-11-20T20:09:06.623Z,55.95
2022-11-20T20:11:34.656Z,56.69
2022-11-20T20:14:06.493Z,56.50
2022-11-20T20:16:35.406Z,56.08
2022-11-20T20:19:04.068Z,56.63
2022-11-20T20:21:32.680Z,55.62
2022-11-20T20:23:59.859Z,55.68
2022-11-20T20:26:29.495Z,55.53
2022-11-20T20:28:56.443Z,55.64
2022-11-20T20:31:25.843Z,55.91
2022-11-20T20:33:53.275Z,55.21
2022-11-20T20:36:22.068Z,55.43
2022-11-20T20:38:52.938Z,56.35
2022-11-20T20:41:20.992Z,56.23
2022-11-20T20:44:06.230Z,56.40
2022-11-20T20:46:33.720Z,57.17
2022-11-20T20:49:00.609Z,58.39
2022-11-20T20:51:27.636Z,57.89
2022-11-20T20:53:54.879Z,57.93
2022-11-20T20:56:21.731Z,57.43
2022-11-20T20:58:48.955Z,57.80
2022-11-20T21:01:18.812Z,57.15
2022-11-20T21:03:46.101Z,58.29
2022-11-20T21:06:13.606Z,58.76
2022-11-20T21:08:42.096Z,58.88
2022-11-20T21:11:16.245Z,58.65
2022-11-20T21:13:45.222Z,59.07
2022-11-20T21:16:14.029Z,59.49
2022-11-20T21:18:41.485Z,58.67
2022-11-20T21:21:31.084Z,58.91
2022-11-20T21:23:58.483Z,58.42
2022-11-20T21:26:25.294Z,59.34
2022-11-20T21:29:11.132Z,58.42
2022-11-20T21:31:39.224Z,58.02
2022-11-20T21:34:13.780Z,58.42
2022-11-20T21:36:42.619Z,58.73
2022-11-20T21:39:11.579Z,58.38
2022-11-20T21:41:40.573Z,57.95
2022-11-20T21:47:01.029Z,59.25
2022-11-20T21:49:27.893Z,58.96
2022-11-20T21:51:54.703Z,57.34
2022-11-20T21:54:21.711Z,58.16
2022-11-20T21:56:48.701Z,57.83
2022-11-20T21:59:15.544Z,58.18
2022-11-20T22:01:42.633Z,57.94
2022-11-20T22:04:13.196Z,58.25
2022-11-20T22:06:40.000Z,58.34
2022-11-20T22:09:06.727Z,58.52
2022-11-20T22:11:33.460Z,58.55
2022-11-20T22:14:18.949Z,58.18
2022-11-20T22:16:46.125Z,58.77
2022-11-20T22:19:18.039Z,57.97
2022-11-20T22:21:45.130Z,57.64
2022-11-20T22:24:17.101Z,57.56
2022-11-20T22:26:44.303Z,57.79
2022-11-20T22:29:20.995Z,57.06
2022-11-20T22:31:48.016Z,57.64
2022-11-20T22:34:15.414Z,59.19
2022-11-20T22:36:42.487Z,59.10
2022-11-20T22:39:09.822Z,58.75
2022-11-20T22:41:36.709Z,59.42
2022-11-20T22:44:06.138Z,60.20
2022-11-20T22:46:35.276Z,59.45
2022-11-20T22:49:04.535Z,59.34
2022-11-20T22:51:33.530Z,58.14
2022-11-20T22:54:01.118Z,58.54
2022-11-20T22:56:27.895Z,58.47
2022-11-20T22:58:54.865Z,58.10
2022-11-20T23:01:33.106Z,58.49
2022-11-20T23:04:02.580Z,58.38
2022-11-20T23:06:30.206Z,58.89
2022-11-20T23:08:57.261Z,57.17
2022-11-20T23:11:26.862Z,57.58
2022-11-20T23:13:58.976Z,57.75
2022-11-20T23:16:27.969Z,58.89
2022-11-20T23:19:02.737Z,61.25
2022-11-20T23:21:30.059Z,59.47
2022-11-20T23:23:58.334Z,58.12
2022-11-20T23:26:28.104Z,57.63
2022-11-20T23:28:56.597Z,58.90
2022-11-20T23:31:24.358Z,59.02
2022-11-20T23:33:51.658Z,59.87
2022-11-20T23:36:18.545Z,60.18
2022-11-20T23:38:45.270Z,59.19
2022-11-20T23:41:12.712Z,58.75
2022-11-20T23:43:39.914Z,58.47
2022-11-20T23:46:07.460Z,58.44
2022-11-20T23:48:36.324Z,60.61
2022-11-20T23:51:05.040Z,59.46
2022-11-20T23:53:33.586Z,59.62
2022-11-20T23:56:03.110Z,59.09
2022-11-20T23:58:33.149Z,57.86
